Pagrindinis puslapis
METAR-TAF:

METAR-TAF

Oro uostai :

Nikolai, Aliaska, Jungtinės Amerikos Valstijos

platuma: 63-01-07N, ilguma: 154-21-30W, Aukštis: 134 m

Dabartinis oras

Ataskaita buvo paskelbta 41 minutes, ne 19:01 UTC
Vėjas 10 kt iš Rytų/Šiaurės Rytų
Temperatūra -23°C
Drėgmė 76%
Slėgis 1015 hPa
Matomumas: 14.5 km
Apsiniaukę ne aukštis 1700 ft
sniegas

METAR: PAFS 161901Z AUTO 07010KT 9SM -SN OVC017 M23/M26 A2998 RMK AO2 SLP171 P0000 T12281261 FZRANO

Laikas: 10:42 (19:42 UTC)


TAF: trūkstamas

Orai ataskaitas ir orų prognozės (METAR, TAF).

turimą stotys yra geltonos ir raudonos taškus žemėlapyje.

Perkelti pele per norėdami pamatyti stoties vardą.

Tada spustelėkite, norėdami matyti oro stebėjimo ir prognozės.

Norėdami pakeisti žemėlapį: spustelėkite ant žalios mygtukų su juodo kryžiaus žemyn,; žalią mygtuką su brūkšneliu, jei norite nutolinti; arba žalių rodyklių gretimoms žemėlapius.


METAR-TAF: